Time;durP1;ratioP1;P1;durP2;ratioP2;P2;SDS_P1;SDS_P2;PMS_P1;PMS_P2;Temp;Humidity;BMP_temperature;BMP_pressure;BME280_temperature;BME280_humidity;BME280_pressure;Samples;Min_cycle;Max_cycle;Signal;HPM_P1;HPM_P2
2023/07/24 00:01:11;;;;;;;7.53;3.90;;;22.30;93.30;;;;;;5036291;28;20021;-84
2023/07/24 00:03:38;;;;;;;7.13;3.75;;;22.20;93.60;;;;;;5034889;28;20120;-86
2023/07/24 00:06:03;;;;;;;7.97;3.95;;;22.20;94.10;;;;;;5035087;28;20049;-88
2023/07/24 00:08:29;;;;;;;7.63;4.25;;;22.10;94.60;;;;;;5036377;28;20033;-87
2023/07/24 00:10:54;;;;;;;5.88;3.50;;;22.00;94.80;;;;;;5034157;28;20029;-85
2023/07/24 00:13:20;;;;;;;7.50;3.90;;;22.00;95.10;;;;;;5035743;28;20355;-87
2023/07/24 00:15:45;;;;;;;10.68;4.07;;;22.00;95.30;;;;;;5034482;28;20025;-85
2023/07/24 00:18:11;;;;;;;10.30;4.07;;;21.90;95.50;;;;;;5035528;28;20065;-85
2023/07/24 00:20:36;;;;;;;6.43;3.50;;;21.90;95.80;;;;;;5034136;28;20378;-82
2023/07/24 00:23:02;;;;;;;7.78;4.18;;;21.90;96.10;;;;;;5035702;28;20044;-84
2023/07/24 00:25:28;;;;;;;8.32;4.10;;;21.90;96.30;;;;;;5034792;28;20078;-84
2023/07/24 00:27:54;;;;;;;8.40;4.15;;;21.90;96.50;;;;;;5034429;28;20730;-84
2023/07/24 00:30:19;;;;;;;8.88;4.10;;;21.90;96.60;;;;;;5035604;28;20100;-85
2023/07/24 00:32:45;;;;;;;8.60;3.67;;;21.90;96.90;;;;;;5035432;28;20032;-84
2023/07/24 00:35:10;;;;;;;11.52;4.05;;;21.80;97.20;;;;;;5034928;28;20041;-85
2023/07/24 00:37:37;;;;;;;8.55;4.10;;;21.80;97.60;;;;;;5034257;28;20117;-83
2023/07/24 00:40:03;;;;;;;6.72;3.95;;;21.70;97.90;;;;;;5035458;28;20033;-84
2023/07/24 00:42:29;;;;;;;9.10;3.97;;;21.60;98.30;;;;;;5034621;28;20037;-84
2023/07/24 00:44:55;;;;;;;8.13;4.00;;;21.70;98.40;;;;;;5034850;28;20032;-84
2023/07/24 00:47:22;;;;;;;7.32;3.95;;;21.60;98.80;;;;;;5035817;28;20437;-85
2023/07/24 00:49:49;;;;;;;7.80;3.80;;;21.60;99.00;;;;;;5034825;28;20036;-84
2023/07/24 00:52:15;;;;;;;12.00;4.65;;;21.50;99.30;;;;;;5035261;28;20390;-84
2023/07/24 00:54:42;;;;;;;8.60;4.35;;;21.50;99.70;;;;;;5034021;28;20030;-83
2023/07/24 00:57:07;;;;;;;8.18;3.90;;;21.40;99.90;;;;;;5035170;28;20021;-84
2023/07/24 00:59:34;;;;;;;9.43;4.25;;;21.40;99.90;;;;;;5035309;28;20100;-84
2023/07/24 01:02:00;;;;;;;9.48;4.30;;;21.30;99.90;;;;;;5033825;28;20049;-86
2023/07/24 01:04:25;;;;;;;8.80;3.90;;;21.30;99.90;;;;;;5037682;28;20037;-85
2023/07/24 01:06:51;;;;;;;11.02;3.85;;;21.20;99.90;;;;;;5054346;28;20052;-85
2023/07/24 01:09:17;;;;;;;7.03;3.83;;;21.10;99.90;;;;;;5037187;28;20060;-86
2023/07/24 01:11:59;;;;;;;7.88;3.85;;;21.10;99.90;;;;;;5054270;28;20120;-85
2023/07/24 01:14:31;;;;;;;7.43;4.20;;;21.10;99.90;;;;;;5054870;28;20025;-86
2023/07/24 01:16:59;;;;;;;8.32;3.80;;;21.20;99.90;;;;;;5054565;28;20100;-85
2023/07/24 01:19:42;;;;;;;7.97;4.03;;;21.20;99.90;;;;;;5037198;28;20035;-85
2023/07/24 01:22:15;;;;;;;7.40;3.83;;;21.20;99.90;;;;;;5036593;28;20075;-86
2023/07/24 01:24:41;;;;;;;8.07;4.00;;;21.20;99.90;;;;;;5036572;28;20025;-84
2023/07/24 01:27:07;;;;;;;7.72;4.05;;;21.20;99.90;;;;;;5037227;28;20116;-85
2023/07/24 01:29:33;;;;;;;9.85;4.03;;;21.20;99.90;;;;;;5036356;28;20028;-85
2023/07/24 01:31:58;;;;;;;7.75;3.95;;;21.20;99.90;;;;;;5036145;28;20028;-84
2023/07/24 01:34:24;;;;;;;6.80;3.78;;;21.20;99.90;;;;;;5036658;28;20029;-85
2023/07/24 01:36:50;;;;;;;6.85;3.60;;;21.10;99.90;;;;;;5053981;28;20029;-85
2023/07/24 01:39:18;;;;;;;10.85;4.40;;;21.10;99.90;;;;;;5054213;28;20127;-85
2023/07/24 01:41:43;;;;;;;8.07;4.05;;;21.10;99.90;;;;;;5036247;28;20044;-84
2023/07/24 01:44:09;;;;;;;6.85;3.70;;;21.10;99.90;;;;;;5036658;28;20466;-83
2023/07/24 01:46:35;;;;;;;7.30;4.22;;;21.10;99.90;;;;;;5054508;28;20386;-83
2023/07/24 01:49:00;;;;;;;7.95;4.30;;;21.00;99.90;;;;;;5036615;28;20028;-83
2023/07/24 01:51:26;;;;;;;8.75;3.88;;;21.10;99.90;;;;;;5036609;28;20440;-85
2023/07/24 01:53:51;;;;;;;8.35;4.03;;;21.10;99.90;;;;;;5053403;28;20032;-84
2023/07/24 01:56:17;;;;;;;8.35;4.30;;;21.10;99.90;;;;;;5053818;28;20017;-85
2023/07/24 01:58:42;;;;;;;7.43;4.47;;;21.00;99.90;;;;;;5035888;28;20112;-80
2023/07/24 02:01:08;;;;;;;7.80;4.05;;;21.00;99.90;;;;;;5036986;28;20457;-85
2023/07/24 02:03:34;;;;;;;8.40;4.35;;;21.00;99.90;;;;;;5036355;28;20027;-85
2023/07/24 02:05:59;;;;;;;10.10;4.40;;;21.00;99.90;;;;;;5036569;28;20068;-86
2023/07/24 02:08:25;;;;;;;7.57;4.47;;;21.00;99.90;;;;;;5036874;28;20025;-85
2023/07/24 02:10:50;;;;;;;9.32;4.65;;;21.10;99.90;;;;;;5053503;28;20033;-85
2023/07/24 02:13:16;;;;;;;8.40;4.47;;;21.00;99.90;;;;;;5055041;28;20025;-85
2023/07/24 02:15:41;;;;;;;10.55;4.43;;;21.10;99.90;;;;;;5036072;28;20033;-83
2023/07/24 02:18:07;;;;;;;9.13;4.07;;;21.10;99.90;;;;;;5036737;28;20032;-85
2023/07/24 02:20:33;;;;;;;11.75;4.53;;;21.10;99.90;;;;;;5036309;28;20481;-86
2023/07/24 02:22:58;;;;;;;7.78;3.83;;;21.10;99.90;;;;;;5035896;28;20037;-85
2023/07/24 02:25:24;;;;;;;6.93;3.75;;;21.00;99.90;;;;;;5053805;28;20025;-86
2023/07/24 02:27:49;;;;;;;8.65;4.50;;;21.00;99.90;;;;;;5053640;28;20033;-83
2023/07/24 02:30:15;;;;;;;8.55;3.90;;;20.90;99.90;;;;;;5053776;28;20032;-83
2023/07/24 02:32:40;;;;;;;6.88;4.10;;;21.00;99.90;;;;;;5036196;28;20452;-83
2023/07/24 02:35:07;;;;;;;7.72;3.90;;;21.00;99.90;;;;;;5056908;28;20116;-86
2023/07/24 02:37:32;;;;;;;9.38;3.97;;;21.00;99.90;;;;;;5040254;28;20029;-86
2023/07/24 02:39:58;;;;;;;8.10;4.03;;;21.00;99.90;;;;;;5057460;28;20025;-87
2023/07/24 02:42:23;;;;;;;7.93;4.10;;;21.00;99.90;;;;;;5040434;28;20166;-86
2023/07/24 02:44:49;;;;;;;7.63;4.15;;;20.90;99.90;;;;;;5057219;28;20036;-86
2023/07/24 02:47:14;;;;;;;8.10;4.20;;;20.90;99.90;;;;;;5040572;28;20540;-87
2023/07/24 02:49:40;;;;;;;9.05;4.07;;;21.00;99.90;;;;;;5040211;28;20385;-87
2023/07/24 02:52:06;;;;;;;8.57;4.60;;;20.90;99.90;;;;;;5057021;28;20029;-87
2023/07/24 02:54:31;;;;;;;8.38;4.40;;;20.80;99.90;;;;;;5057595;28;20070;-87
2023/07/24 02:56:57;;;;;;;8.80;4.20;;;20.70;99.90;;;;;;5039516;28;20431;-87
2023/07/24 02:59:23;;;;;;;9.32;4.43;;;20.80;99.90;;;;;;5040075;28;20051;-87
2023/07/24 03:01:49;;;;;;;8.35;4.30;;;20.70;99.90;;;;;;5056993;28;20116;-87
2023/07/24 03:04:14;;;;;;;8.85;4.15;;;20.70;99.90;;;;;;5039392;28;20450;-86
2023/07/24 03:06:40;;;;;;;8.70;4.45;;;20.80;99.90;;;;;;5039920;28;20025;-86
2023/07/24 03:09:06;;;;;;;6.78;3.88;;;20.80;99.90;;;;;;5039037;28;20099;-85
2023/07/24 03:11:31;;;;;;;10.18;4.70;;;20.80;99.90;;;;;;5039627;28;20033;-86
2023/07/24 03:13:57;;;;;;;6.55;4.18;;;20.80;99.90;;;;;;5056472;28;20367;-86
2023/07/24 03:16:22;;;;;;;9.45;4.30;;;20.80;99.90;;;;;;5039366;28;20058;-86
2023/07/24 03:18:48;;;;;;;9.10;4.18;;;20.80;99.90;;;;;;5038648;28;20024;-85
2023/07/24 03:21:14;;;;;;;8.77;3.95;;;20.80;99.90;;;;;;5056728;28;20064;-86
2023/07/24 03:23:39;;;;;;;8.13;4.07;;;20.80;99.90;;;;;;5039339;28;20025;-86
2023/07/24 03:26:05;;;;;;;10.23;4.85;;;20.70;99.90;;;;;;5056513;28;20105;-86
2023/07/24 03:28:30;;;;;;;7.82;4.68;;;20.60;99.90;;;;;;5056857;28;20131;-85
2023/07/24 03:30:56;;;;;;;8.13;4.05;;;20.60;99.90;;;;;;5038487;28;20025;-85
2023/07/24 03:33:22;;;;;;;8.73;4.70;;;20.50;99.90;;;;;;5038718;28;20029;-85
2023/07/24 03:35:47;;;;;;;7.07;4.07;;;20.50;99.90;;;;;;5056376;28;20029;-82
2023/07/24 03:38:13;;;;;;;8.18;4.18;;;20.50;99.90;;;;;;5056513;28;20032;-83
2023/07/24 03:40:38;;;;;;;7.95;4.40;;;20.40;99.90;;;;;;5056817;28;20056;-83
2023/07/24 03:43:04;;;;;;;7.93;4.25;;;20.40;99.90;;;;;;5038143;28;20037;-83
2023/07/24 03:45:30;;;;;;;8.23;4.38;;;20.40;99.90;;;;;;5055195;28;20028;-86
2023/07/24 03:47:56;;;;;;;7.20;3.78;;;20.50;99.90;;;;;;5038095;28;20067;-85
2023/07/24 03:50:21;;;;;;;8.75;4.60;;;20.60;99.90;;;;;;5056263;28;20474;-86
2023/07/24 03:52:47;;;;;;;7.18;4.25;;;20.60;99.90;;;;;;5038026;28;20032;-85
2023/07/24 03:55:12;;;;;;;10.90;4.88;;;20.60;99.90;;;;;;5056204;28;20029;-85
2023/07/24 03:57:38;;;;;;;6.75;3.92;;;20.60;99.90;;;;;;5056082;28;20028;-86
2023/07/24 04:00:04;;;;;;;9.85;4.40;;;20.60;99.90;;;;;;5038214;28;20083;-86
2023/07/24 04:02:30;;;;;;;8.80;4.72;;;20.50;99.90;;;;;;5055935;28;20055;-87
2023/07/24 04:04:55;;;;;;;9.73;4.68;;;20.60;99.90;;;;;;5055140;28;20048;-87
2023/07/24 04:07:21;;;;;;;9.27;5.32;;;20.50;99.90;;;;;;5056013;28;20036;-87
2023/07/24 04:09:46;;;;;;;7.57;4.35;;;20.50;99.90;;;;;;5056001;28;20021;-82
2023/07/24 04:12:13;;;;;;;8.07;4.22;;;20.40;99.90;;;;;;5037896;28;20029;-87
2023/07/24 04:14:38;;;;;;;8.77;4.60;;;20.60;99.90;;;;;;5038481;28;20027;-87
2023/07/24 04:17:04;;;;;;;7.00;4.05;;;20.60;99.90;;;;;;5055205;28;20025;-86
2023/07/24 04:19:30;;;;;;;8.30;4.07;;;20.70;99.90;;;;;;5055659;28;20108;-85
2023/07/24 04:21:55;;;;;;;9.88;4.90;;;20.70;99.90;;;;;;5037427;28;20106;-85
2023/07/24 04:24:21;;;;;;;8.50;4.57;;;20.70;99.90;;;;;;5055797;28;20029;-86
2023/07/24 04:26:46;;;;;;;9.80;4.57;;;20.70;99.90;;;;;;5055432;28;20032;-85
2023/07/24 04:29:12;;;;;;;8.75;5.00;;;20.60;99.90;;;;;;5054914;28;20442;-85
2023/07/24 04:31:37;;;;;;;9.90;5.10;;;20.70;99.90;;;;;;5055206;28;20029;-85
2023/07/24 04:34:03;;;;;;;10.85;5.53;;;20.70;99.90;;;;;;5036850;28;20115;-85
2023/07/24 04:36:29;;;;;;;7.38;4.20;;;20.70;99.90;;;;;;5037746;28;20480;-85
2023/07/24 04:38:54;;;;;;;8.43;4.80;;;20.80;99.90;;;;;;5037352;28;20029;-85
2023/07/24 04:41:20;;;;;;;7.47;4.55;;;20.80;99.90;;;;;;5038210;28;20025;-86
2023/07/24 04:43:45;;;;;;;9.82;4.57;;;20.70;99.90;;;;;;5055361;28;20522;-87
2023/07/24 04:46:11;;;;;;;9.48;4.40;;;20.80;99.90;;;;;;5054625;28;20020;-87
2023/07/24 04:48:36;;;;;;;8.82;4.70;;;20.80;99.90;;;;;;5055240;28;20470;-87
2023/07/24 04:51:02;;;;;;;10.30;5.03;;;20.80;99.90;;;;;;5037086;28;20036;-87
2023/07/24 04:53:28;;;;;;;9.95;4.40;;;20.80;99.90;;;;;;5037807;28;20088;-87
2023/07/24 04:55:53;;;;;;;7.07;4.60;;;20.90;99.90;;;;;;5054313;28;20025;-85
2023/07/24 04:58:19;;;;;;;9.10;4.15;;;20.70;99.90;;;;;;5037447;28;20031;-86
2023/07/24 05:00:44;;;;;;;9.75;4.55;;;20.80;99.90;;;;;;5037507;28;20029;-87
2023/07/24 05:03:11;;;;;;;9.70;4.60;;;20.80;99.90;;;;;;5036754;28;20040;-87
2023/07/24 05:05:39;;;;;;;9.05;4.32;;;20.70;99.90;;;;;;5054611;28;20494;-87
2023/07/24 05:08:08;;;;;;;8.85;5.05;;;20.80;99.90;;;;;;5037020;28;20116;-87
2023/07/24 05:10:37;;;;;;;7.90;4.80;;;20.80;99.90;;;;;;5037172;28;20032;-87
2023/07/24 05:13:02;;;;;;;7.05;4.32;;;20.80;99.90;;;;;;5054198;28;20039;-86
2023/07/24 05:15:28;;;;;;;8.07;4.43;;;20.90;99.90;;;;;;5054736;28;20025;-87
2023/07/24 05:17:53;;;;;;;8.35;4.63;;;20.90;99.90;;;;;;5036599;28;20024;-81
2023/07/24 05:20:19;;;;;;;7.88;4.25;;;21.00;99.90;;;;;;5054595;28;20373;-87
2023/07/24 05:22:44;;;;;;;8.10;4.80;;;21.00;99.90;;;;;;5054615;28;20033;-87
2023/07/24 05:25:10;;;;;;;7.32;4.32;;;21.00;99.90;;;;;;5054282;28;20021;-86
2023/07/24 05:27:36;;;;;;;11.60;4.97;;;21.00;99.90;;;;;;5037195;28;20021;-88
2023/07/24 05:30:02;;;;;;;9.07;4.30;;;21.00;99.90;;;;;;5036633;28;20029;-87
2023/07/24 05:32:27;;;;;;;9.38;4.60;;;21.00;99.90;;;;;;5036825;28;20040;-87
2023/07/24 05:34:53;;;;;;;8.50;4.82;;;21.10;99.90;;;;;;5036415;28;20036;-83
2023/07/24 05:37:18;;;;;;;12.27;5.05;;;21.10;99.90;;;;;;5054062;28;20056;-88
2023/07/24 05:39:44;;;;;;;9.23;4.75;;;21.10;99.90;;;;;;5054194;28;20025;-87
2023/07/24 05:42:10;;;;;;;8.10;4.50;;;21.20;99.90;;;;;;5036300;28;20087;-87
2023/07/24 05:44:37;;;;;;;9.75;4.80;;;21.20;99.90;;;;;;5054372;28;20059;-88
2023/07/24 05:47:03;;;;;;;7.95;4.32;;;21.20;99.90;;;;;;5036221;28;20355;-87
2023/07/24 05:49:28;;;;;;;10.35;5.32;;;21.20;99.90;;;;;;5036689;28;20035;-87
2023/07/24 05:51:54;;;;;;;11.32;4.97;;;21.20;99.90;;;;;;5036751;28;20381;-82
2023/07/24 05:54:19;;;;;;;9.02;4.40;;;21.20;99.90;;;;;;5054056;28;20033;-86
2023/07/24 05:56:45;;;;;;;8.05;4.90;;;21.10;99.90;;;;;;5036270;28;20434;-86
2023/07/24 05:59:10;;;;;;;10.25;5.25;;;21.10;99.90;;;;;;5035825;28;20120;-86
2023/07/24 06:01:36;;;;;;;10.90;4.68;;;21.10;99.90;;;;;;5053546;28;20477;-86
2023/07/24 06:04:02;;;;;;;8.75;4.78;;;21.20;99.90;;;;;;5053232;28;20041;-86
2023/07/24 06:06:28;;;;;;;12.18;5.20;;;21.20;99.90;;;;;;5036216;28;20053;-86
2023/07/24 06:08:53;;;;;;;8.95;5.00;;;21.20;99.90;;;;;;5040510;28;20028;-84
2023/07/24 06:11:19;;;;;;;12.40;5.10;;;21.20;99.90;;;;;;5042479;28;20025;-86
2023/07/24 06:13:44;;;;;;;8.57;4.60;;;21.20;99.90;;;;;;5061461;28;20453;-86
2023/07/24 06:16:12;;;;;;;9.65;4.88;;;21.20;99.90;;;;;;5046898;28;20047;-86
2023/07/24 06:18:38;;;;;;;10.27;5.13;;;21.20;99.90;;;;;;5061769;28;20022;-86
2023/07/24 06:21:03;;;;;;;11.02;4.75;;;21.20;99.90;;;;;;5043308;28;20528;-81
2023/07/24 06:23:29;;;;;;;9.60;5.00;;;21.20;99.90;;;;;;5060023;28;20044;-81
2023/07/24 06:25:55;;;;;;;9.55;5.07;;;21.20;99.90;;;;;;5059739;28;20455;-81
2023/07/24 06:28:21;;;;;;;11.43;5.20;;;21.30;99.90;;;;;;5042555;28;20082;-85
2023/07/24 06:30:46;;;;;;;9.27;4.80;;;21.30;99.90;;;;;;5060661;28;20028;-84
2023/07/24 06:33:12;;;;;;;9.68;5.03;;;21.30;99.90;;;;;;5042840;28;20119;-85
2023/07/24 06:35:38;;;;;;;10.45;4.93;;;21.40;99.90;;;;;;5045251;28;20033;-85
2023/07/24 06:38:03;;;;;;;9.82;5.28;;;21.40;99.90;;;;;;5043769;28;20414;-87
2023/07/24 06:40:29;;;;;;;9.02;4.65;;;21.40;99.90;;;;;;5062599;28;20031;-86
2023/07/24 06:42:54;;;;;;;13.27;5.65;;;21.40;99.90;;;;;;5044688;28;20030;-86
2023/07/24 06:45:20;;;;;;;12.27;5.80;;;21.60;99.90;;;;;;5045554;28;20481;-85
2023/07/24 06:47:45;;;;;;;9.75;4.47;;;21.60;99.90;;;;;;5042422;28;20104;-85
2023/07/24 06:50:11;;;;;;;9.90;4.72;;;21.60;99.90;;;;;;5041665;28;20021;-85
2023/07/24 06:52:37;;;;;;;11.07;4.60;;;21.60;99.90;;;;;;5042257;28;20031;-85
2023/07/24 06:55:03;;;;;;;11.13;5.45;;;21.60;99.90;;;;;;5039007;28;20029;-83
2023/07/24 06:57:29;;;;;;;9.70;5.22;;;21.60;99.90;;;;;;5037305;28;20143;-83
2023/07/24 06:59:55;;;;;;;8.52;4.78;;;21.70;99.90;;;;;;5042024;28;20052;-84
2023/07/24 07:02:20;;;;;;;11.23;5.55;;;21.70;99.90;;;;;;5043235;28;20044;-84
2023/07/24 07:04:46;;;;;;;9.93;5.18;;;21.70;99.90;;;;;;5060342;28;20052;-84
2023/07/24 07:07:12;;;;;;;8.93;4.30;;;21.70;99.90;;;;;;5043665;28;20069;-84
2023/07/24 07:09:37;;;;;;;8.57;4.65;;;21.80;99.90;;;;;;5043935;28;20480;-84
2023/07/24 07:12:03;;;;;;;11.65;4.95;;;21.80;99.90;;;;;;5041552;28;20035;-84
2023/07/24 07:14:28;;;;;;;11.25;5.43;;;21.80;99.90;;;;;;5038546;28;20053;-85
2023/07/24 07:16:54;;;;;;;9.25;4.63;;;21.80;99.90;;;;;;5038790;28;20078;-85
2023/07/24 07:19:19;;;;;;;10.98;4.35;;;21.90;99.90;;;;;;5036829;28;20045;-84
2023/07/24 07:21:45;;;;;;;8.90;4.20;;;21.90;99.90;;;;;;5036356;28;20176;-84
2023/07/24 07:24:11;;;;;;;9.65;4.85;;;21.80;99.90;;;;;;5035576;28;20026;-83
2023/07/24 07:26:36;;;;;;;10.93;4.80;;;21.80;99.90;;;;;;5039232;28;20051;-84
2023/07/24 07:29:02;;;;;;;12.45;5.07;;;21.70;99.90;;;;;;5039189;28;20072;-84
2023/07/24 07:31:27;;;;;;;11.55;4.50;;;21.60;99.90;;;;;;5057126;28;20025;-85
2023/07/24 07:33:53;;;;;;;8.57;4.72;;;21.60;99.90;;;;;;5060349;28;20033;-86
2023/07/24 07:36:18;;;;;;;12.32;5.10;;;21.60;99.90;;;;;;5061402;28;20654;-85
2023/07/24 07:38:44;;;;;;;8.48;5.00;;;21.50;99.90;;;;;;5060883;28;20029;-85
2023/07/24 07:41:10;;;;;;;10.93;5.57;;;21.40;99.90;;;;;;5043470;28;20025;-85
2023/07/24 07:43:36;;;;;;;13.20;5.57;;;21.40;99.90;;;;;;5054099;28;20055;-84
2023/07/24 07:46:02;;;;;;;14.95;6.10;;;21.40;99.90;;;;;;5072667;28;20039;-80
2023/07/24 07:48:28;;;;;;;14.48;5.22;;;21.30;99.90;;;;;;5056071;28;20025;-86
2023/07/24 07:50:54;;;;;;;9.95;4.97;;;21.30;99.90;;;;;;5060593;28;20033;-87
2023/07/24 07:53:19;;;;;;;10.07;5.03;;;21.20;99.90;;;;;;5062568;28;20028;-86
2023/07/24 07:55:45;;;;;;;11.07;5.00;;;21.10;99.90;;;;;;5039112;28;20021;-85
2023/07/24 07:58:10;;;;;;;11.25;5.40;;;21.10;99.90;;;;;;5037670;28;20032;-83
2023/07/24 08:00:39;;;;;;;10.60;5.35;;;21.20;99.90;;;;;;5055315;28;20104;-84
2023/07/24 08:03:05;;;;;;;11.43;5.30;;;21.20;99.90;;;;;;5054886;28;20045;-84
2023/07/24 08:05:31;;;;;;;14.35;5.13;;;21.10;99.90;;;;;;5055434;28;20075;-85
2023/07/24 08:07:57;;;;;;;9.68;5.03;;;21.10;99.90;;;;;;5035025;28;20029;-85
2023/07/24 08:10:23;;;;;;;8.93;4.75;;;21.20;99.90;;;;;;5050273;28;20104;-83
2023/07/24 08:12:48;;;;;;;8.20;4.78;;;21.20;99.90;;;;;;5037002;28;20040;-84
2023/07/24 08:15:14;;;;;;;11.80;5.03;;;21.20;99.90;;;;;;5033795;28;20026;-84
2023/07/24 08:17:39;;;;;;;10.00;5.32;;;21.30;99.90;;;;;;5055369;28;20084;-83
2023/07/24 08:20:06;;;;;;;9.80;5.55;;;21.30;99.90;;;;;;5037713;28;20115;-84
2023/07/24 08:22:31;;;;;;;12.35;5.07;;;21.40;99.90;;;;;;5055337;28;20124;-84
2023/07/24 08:24:57;;;;;;;9.38;4.93;;;21.50;99.90;;;;;;5054960;28;20100;-85
2023/07/24 08:27:22;;;;;;;11.07;5.75;;;21.50;99.90;;;;;;5054555;28;20037;-85
2023/07/24 08:29:51;;;;;;;11.75;5.10;;;21.60;99.90;;;;;;5037978;28;20092;-86
2023/07/24 08:32:17;;;;;;;10.50;5.25;;;21.60;99.90;;;;;;5054422;28;20454;-84
2023/07/24 08:34:42;;;;;;;11.95;5.05;;;21.60;99.90;;;;;;5055312;28;20039;-86
2023/07/24 08:37:08;;;;;;;10.13;4.97;;;21.50;99.90;;;;;;5037178;28;20477;-84
2023/07/24 08:39:33;;;;;;;10.15;4.85;;;21.50;99.90;;;;;;5055017;28;20021;-85
2023/07/24 08:41:59;;;;;;;10.45;4.90;;;21.50;99.90;;;;;;5033956;28;20489;-83
2023/07/24 08:44:28;;;;;;;8.07;4.57;;;21.60;99.90;;;;;;5036540;28;20576;-84
2023/07/24 08:46:54;;;;;;;13.25;5.45;;;21.80;99.90;;;;;;5055128;28;20021;-86
2023/07/24 08:49:21;;;;;;;8.27;4.50;;;21.90;99.90;;;;;;5036686;28;20088;-85
2023/07/24 08:51:47;;;;;;;8.25;4.57;;;21.90;99.90;;;;;;5036978;28;20033;-84
2023/07/24 08:54:13;;;;;;;10.35;5.20;;;21.90;99.90;;;;;;5036965;28;20029;-84
2023/07/24 08:56:41;;;;;;;13.05;5.05;;;22.00;99.90;;;;;;5034742;28;20029;-83
2023/07/24 08:59:07;;;;;;;8.60;4.45;;;22.10;99.90;;;;;;5035428;28;20067;-84
2023/07/24 09:01:33;;;;;;;10.00;4.70;;;22.30;99.90;;;;;;5025047;28;20052;-80
2023/07/24 09:03:58;;;;;;;9.23;5.00;;;22.40;99.90;;;;;;5047286;28;20033;-82
2023/07/24 09:06:26;;;;;;;10.02;4.82;;;22.60;99.90;;;;;;5036360;28;20052;-83
2023/07/24 09:08:54;;;;;;;9.05;4.78;;;22.70;99.90;;;;;;5016886;28;20051;-87
2023/07/24 09:11:19;;;;;;;11.27;5.00;;;22.70;99.90;;;;;;5033822;28;20087;-83
2023/07/24 09:13:45;;;;;;;7.78;4.47;;;22.70;99.90;;;;;;5033332;28;20025;-82
2023/07/24 09:16:23;;;;;;;9.60;4.43;;;22.70;99.90;;;;;;5038906;28;20025;-82
2023/07/24 09:18:51;;;;;;;10.35;4.82;;;22.80;99.90;;;;;;5054102;28;20032;-82
2023/07/24 09:21:27;;;;;;;7.38;4.50;;;22.80;99.90;;;;;;5053397;28;20021;-82
2023/07/24 09:23:53;;;;;;;8.35;4.13;;;22.80;99.90;;;;;;5036690;28;20037;-82
2023/07/24 09:26:18;;;;;;;7.80;4.55;;;22.90;99.90;;;;;;5029917;28;20036;-81
2023/07/24 09:28:54;;;;;;;10.30;4.65;;;22.90;99.90;;;;;;5016704;28;20036;-82
2023/07/24 09:31:20;;;;;;;7.78;4.03;;;23.00;99.90;;;;;;5034084;28;20044;-82
2023/07/24 09:33:46;;;;;;;9.50;4.78;;;23.00;99.90;;;;;;5052634;28;20037;-86
2023/07/24 09:36:12;;;;;;;9.40;4.70;;;23.00;99.90;;;;;;5052690;28;20031;-86
2023/07/24 09:38:38;;;;;;;7.53;4.35;;;23.10;99.90;;;;;;5053179;28;20029;-87
2023/07/24 09:41:05;;;;;;;8.77;4.45;;;23.00;99.90;;;;;;5052225;28;20105;-77
2023/07/24 09:43:31;;;;;;;8.60;4.43;;;23.00;99.90;;;;;;5031819;28;20029;-81
2023/07/24 09:45:57;;;;;;;9.50;4.55;;;22.90;99.90;;;;;;5033916;28;20029;-79
2023/07/24 09:48:25;;;;;;;9.43;4.82;;;22.90;99.90;;;;;;5052710;28;20025;-82
2023/07/24 09:50:59;;;;;;;9.15;4.78;;;22.80;99.90;;;;;;5015843;28;20025;-80
2023/07/24 09:53:42;;;;;;;8.10;4.50;;;22.80;99.90;;;;;;5032254;28;20084;-78
2023/07/24 09:56:10;;;;;;;10.38;4.40;;;22.80;99.90;;;;;;5027722;28;20094;-85
2023/07/24 09:58:38;;;;;;;7.35;3.92;;;22.70;99.90;;;;;;5033380;28;20028;-81
2023/07/24 10:01:06;;;;;;;10.93;4.82;;;22.60;99.90;;;;;;5052615;28;20037;-79
2023/07/24 10:03:35;;;;;;;6.50;4.43;;;22.60;99.90;;;;;;5035846;28;20049;-82
2023/07/24 10:06:01;;;;;;;7.47;4.45;;;22.60;99.90;;;;;;5053937;28;20072;-82
2023/07/24 10:08:27;;;;;;;8.77;4.43;;;22.60;99.90;;;;;;5035616;28;20378;-82
2023/07/24 10:10:53;;;;;;;8.77;4.60;;;22.50;99.90;;;;;;5033496;28;20563;-82
2023/07/24 10:13:21;;;;;;;8.38;4.47;;;22.50;99.90;;;;;;5039447;28;20025;-82
2023/07/24 10:15:48;;;;;;;8.15;4.70;;;22.50;99.90;;;;;;5032594;28;20105;-84
2023/07/24 10:18:17;;;;;;;7.32;4.60;;;22.40;99.90;;;;;;5032471;28;20056;-84
2023/07/24 10:20:42;;;;;;;7.65;4.25;;;22.40;99.90;;;;;;5035349;28;20528;-84
2023/07/24 10:23:09;;;;;;;9.27;4.60;;;22.40;99.90;;;;;;5052223;28;20067;-84
2023/07/24 10:25:43;;;;;;;7.50;4.05;;;22.40;99.90;;;;;;5036007;28;20108;-83
2023/07/24 10:28:12;;;;;;;10.40;4.60;;;22.30;99.90;;;;;;5035656;28;20115;-85
2023/07/24 10:30:38;;;;;;;10.80;5.10;;;22.30;99.90;;;;;;5035960;28;20025;-83
2023/07/24 10:33:18;;;;;;;9.55;4.63;;;22.30;99.90;;;;;;5035359;28;20029;-83
2023/07/24 10:35:46;;;;;;;7.65;4.32;;;22.30;99.90;;;;;;5053405;28;20041;-83
2023/07/24 10:38:15;;;;;;;7.70;4.40;;;22.30;99.90;;;;;;5052755;28;20025;-83
2023/07/24 10:40:42;;;;;;;8.88;4.30;;;22.40;99.90;;;;;;5053456;28;20031;-83
2023/07/24 10:43:09;;;;;;;7.50;4.15;;;22.40;99.90;;;;;;5052852;28;20040;-83
2023/07/24 10:45:49;;;;;;;7.82;4.22;;;22.40;99.90;;;;;;5053333;28;20489;-84
2023/07/24 10:48:16;;;;;;;8.77;4.32;;;22.40;99.90;;;;;;5052904;28;20052;-84
2023/07/24 10:50:46;;;;;;;12.07;4.43;;;22.40;99.90;;;;;;5035788;28;20116;-84
2023/07/24 10:53:15;;;;;;;7.60;4.18;;;22.40;99.90;;;;;;5035116;28;20123;-84
2023/07/24 10:55:42;;;;;;;8.73;4.35;;;22.40;99.90;;;;;;5056309;28;20056;-84
2023/07/24 10:58:08;;;;;;;7.18;4.22;;;22.40;99.90;;;;;;5056305;28;20036;-83
2023/07/24 11:00:34;;;;;;;8.38;3.92;;;22.40;99.90;;;;;;5056901;28;20025;-82
2023/07/24 11:02:59;;;;;;;7.82;3.78;;;22.40;99.90;;;;;;5056282;28;20086;-84
2023/07/24 11:05:26;;;;;;;7.68;4.13;;;22.40;99.90;;;;;;5038950;28;20048;-83
2023/07/24 11:07:51;;;;;;;6.60;4.18;;;22.50;99.90;;;;;;5039099;28;20170;-83
2023/07/24 11:10:18;;;;;;;8.75;4.25;;;22.50;99.90;;;;;;5056238;28;20083;-82
2023/07/24 11:12:44;;;;;;;7.78;4.10;;;22.60;99.90;;;;;;5056549;28;20048;-83
2023/07/24 11:15:11;;;;;;;7.95;4.18;;;22.60;99.90;;;;;;5056246;28;20465;-83
2023/07/24 11:17:40;;;;;;;7.80;3.92;;;22.70;99.90;;;;;;5035939;28;20466;-84
2023/07/24 11:20:06;;;;;;;6.78;3.75;;;22.70;99.90;;;;;;5036394;28;20033;-82
2023/07/24 11:22:33;;;;;;;6.65;3.67;;;22.80;99.90;;;;;;5047983;28;20155;-81
2023/07/24 11:24:58;;;;;;;5.93;3.58;;;22.90;99.90;;;;;;5056253;28;20055;-82
2023/07/24 11:27:25;;;;;;;9.00;4.05;;;23.10;99.90;;;;;;5038468;28;20053;-82
2023/07/24 11:29:50;;;;;;;7.65;4.07;;;23.20;99.90;;;;;;5038903;28;20025;-81
2023/07/24 11:32:20;;;;;;;6.30;3.63;;;23.20;99.90;;;;;;5055673;28;20036;-83
2023/07/24 11:34:50;;;;;;;7.35;4.00;;;23.30;99.90;;;;;;5055944;28;20069;-82
2023/07/24 11:37:16;;;;;;;6.93;3.88;;;23.30;99.90;;;;;;5055939;28;20102;-82
2023/07/24 11:39:41;;;;;;;7.07;3.85;;;23.40;99.90;;;;;;5038750;28;20102;-82
2023/07/24 11:42:07;;;;;;;9.88;4.57;;;23.40;99.90;;;;;;5037864;28;20052;-81
2023/07/24 11:44:33;;;;;;;7.47;3.50;;;23.40;99.90;;;;;;5055935;28;20076;-82
2023/07/24 11:47:05;;;;;;;7.72;3.95;;;23.40;99.90;;;;;;5056132;28;20024;-82
2023/07/24 11:49:32;;;;;;;13.73;3.95;;;23.50;99.90;;;;;;5055459;28;20025;-82
2023/07/24 11:52:05;;;;;;;7.10;3.85;;;23.60;99.90;;;;;;5055749;28;20094;-82
2023/07/24 11:54:34;;;;;;;7.20;4.13;;;23.70;99.90;;;;;;5037724;28;20029;-82
2023/07/24 11:56:59;;;;;;;5.85;3.80;;;23.70;99.90;;;;;;5037532;28;20018;-82
2023/07/24 11:59:26;;;;;;;8.82;4.10;;;23.80;99.90;;;;;;5037554;28;20032;-82
2023/07/24 12:01:52;;;;;;;7.03;3.97;;;23.90;99.90;;;;;;5036475;28;20064;-82
2023/07/24 12:04:18;;;;;;;7.35;3.85;;;23.80;99.90;;;;;;5036676;28;20061;-82
2023/07/24 12:06:43;;;;;;;7.13;3.80;;;23.90;99.90;;;;;;5054967;28;20024;-82
2023/07/24 12:09:11;;;;;;;7.30;3.65;;;23.90;99.90;;;;;;5034191;28;20030;-82
2023/07/24 12:11:44;;;;;;;7.32;3.55;;;23.90;99.90;;;;;;5037893;28;20032;-84
2023/07/24 12:14:10;;;;;;;6.35;3.75;;;24.10;99.90;;;;;;5017696;28;20025;-82
2023/07/24 12:16:36;;;;;;;6.70;3.75;;;24.30;99.90;;;;;;5051735;28;20079;-83
2023/07/24 12:19:02;;;;;;;7.15;3.78;;;24.50;99.90;;;;;;5037880;28;20021;-83
2023/07/24 12:21:27;;;;;;;6.28;3.83;;;24.70;99.90;;;;;;5037220;28;20032;-83
2023/07/24 12:23:53;;;;;;;8.25;3.35;;;24.50;99.90;;;;;;5055331;28;20385;-83
2023/07/24 12:26:18;;;;;;;7.93;4.03;;;24.30;99.90;;;;;;5036833;28;20032;-83
2023/07/24 12:28:44;;;;;;;6.50;3.95;;;24.30;99.90;;;;;;5034204;28;20030;-83
2023/07/24 12:31:10;;;;;;;5.63;3.20;;;24.40;99.90;;;;;;5033809;28;20026;-80
2023/07/24 12:33:35;;;;;;;5.63;3.28;;;24.60;99.90;;;;;;5044412;28;20458;-80
2023/07/24 12:36:01;;;;;;;6.80;3.70;;;24.60;99.90;;;;;;5037819;28;20037;-81
2023/07/24 12:38:27;;;;;;;6.18;3.45;;;24.60;99.90;;;;;;5054933;28;20104;-80
2023/07/24 12:40:53;;;;;;;6.10;3.22;;;24.70;99.90;;;;;;5055172;28;20047;-80